sensor_id;sensor_type;location;lat;lon;timestamp;P1;durP1;ratioP1;P2;durP2;ratioP2
67272;SDS011;54190;49.770;9.250;2023-02-22T00:01:27;8.93;;;6.67;;
67272;SDS011;54190;49.770;9.250;2023-02-22T00:03:59;9.53;;;6.23;;
67272;SDS011;54190;49.770;9.250;2023-02-22T00:06:28;10.20;;;6.70;;
67272;SDS011;54190;49.770;9.250;2023-02-22T00:08:55;9.60;;;6.50;;
67272;SDS011;54190;49.770;9.250;2023-02-22T00:11:21;9.47;;;6.47;;
67272;SDS011;54190;49.770;9.250;2023-02-22T00:13:47;8.73;;;6.50;;
67272;SDS011;54190;49.770;9.250;2023-02-22T00:16:15;10.27;;;6.33;;
67272;SDS011;54190;49.770;9.250;2023-02-22T00:18:45;11.13;;;6.30;;
67272;SDS011;54190;49.770;9.250;2023-02-22T00:21:11;11.80;;;6.83;;
67272;SDS011;54190;49.770;9.250;2023-02-22T00:23:42;13.77;;;7.07;;
67272;SDS011;54190;49.770;9.250;2023-02-22T00:26:13;9.97;;;6.87;;
67272;SDS011;54190;49.770;9.250;2023-02-22T00:28:44;12.63;;;7.03;;
67272;SDS011;54190;49.770;9.250;2023-02-22T00:31:11;11.93;;;7.73;;
67272;SDS011;54190;49.770;9.250;2023-02-22T00:33:37;10.73;;;7.10;;
67272;SDS011;54190;49.770;9.250;2023-02-22T00:36:03;11.40;;;6.77;;
67272;SDS011;54190;49.770;9.250;2023-02-22T00:38:29;12.60;;;7.10;;
67272;SDS011;54190;49.770;9.250;2023-02-22T00:40:55;11.00;;;6.87;;
67272;SDS011;54190;49.770;9.250;2023-02-22T00:43:22;10.40;;;7.05;;
67272;SDS011;54190;49.770;9.250;2023-02-22T00:45:49;10.70;;;7.90;;
67272;SDS011;54190;49.770;9.250;2023-02-22T00:48:16;13.30;;;7.10;;
67272;SDS011;54190;49.770;9.250;2023-02-22T00:50:42;13.37;;;7.43;;
67272;SDS011;54190;49.770;9.250;2023-02-22T00:53:09;23.43;;;8.70;;
67272;SDS011;54190;49.770;9.250;2023-02-22T00:55:35;10.60;;;7.67;;
67272;SDS011;54190;49.770;9.250;2023-02-22T00:58:02;13.53;;;8.40;;
67272;SDS011;54190;49.770;9.250;2023-02-22T01:00:33;15.40;;;7.63;;
67272;SDS011;54190;49.770;9.250;2023-02-22T01:03:01;15.33;;;7.60;;
67272;SDS011;54190;49.770;9.250;2023-02-22T01:05:29;13.77;;;7.97;;
67272;SDS011;54190;49.770;9.250;2023-02-22T01:07:56;16.73;;;7.60;;
67272;SDS011;54190;49.770;9.250;2023-02-22T01:10:23;12.97;;;8.10;;
67272;SDS011;54190;49.770;9.250;2023-02-22T01:12:51;12.70;;;8.23;;
67272;SDS011;54190;49.770;9.250;2023-02-22T01:15:19;18.13;;;9.23;;
67272;SDS011;54190;49.770;9.250;2023-02-22T01:17:50;12.73;;;8.63;;
67272;SDS011;54190;49.770;9.250;2023-02-22T01:20:17;13.17;;;7.93;;
67272;SDS011;54190;49.770;9.250;2023-02-22T01:22:46;17.13;;;8.57;;
67272;SDS011;54190;49.770;9.250;2023-02-22T01:25:20;15.30;;;8.83;;
67272;SDS011;54190;49.770;9.250;2023-02-22T01:27:47;23.43;;;8.97;;
67272;SDS011;54190;49.770;9.250;2023-02-22T01:30:15;13.57;;;8.50;;
67272;SDS011;54190;49.770;9.250;2023-02-22T01:32:43;19.93;;;8.97;;
67272;SDS011;54190;49.770;9.250;2023-02-22T01:35:11;20.17;;;9.33;;
67272;SDS011;54190;49.770;9.250;2023-02-22T01:37:39;28.37;;;9.77;;
67272;SDS011;54190;49.770;9.250;2023-02-22T01:40:08;25.90;;;10.70;;
67272;SDS011;54190;49.770;9.250;2023-02-22T01:42:41;31.23;;;9.83;;
67272;SDS011;54190;49.770;9.250;2023-02-22T01:48:11;69.00;;;12.10;;
67272;SDS011;54190;49.770;9.250;2023-02-22T01:50:47;155.13;;;15.00;;
67272;SDS011;54190;49.770;9.250;2023-02-22T01:53:33;26.73;;;9.60;;
67272;SDS011;54190;49.770;9.250;2023-02-22T01:56:02;60.00;;;12.00;;
67272;SDS011;54190;49.770;9.250;2023-02-22T01:58:30;32.30;;;10.70;;
67272;SDS011;54190;49.770;9.250;2023-02-22T02:00:59;37.57;;;10.80;;
67272;SDS011;54190;49.770;9.250;2023-02-22T02:03:27;73.13;;;11.90;;
67272;SDS011;54190;49.770;9.250;2023-02-22T02:05:55;33.40;;;11.20;;
67272;SDS011;54190;49.770;9.250;2023-02-22T02:11:20;26.63;;;10.30;;
67272;SDS011;54190;49.770;9.250;2023-02-22T02:13:50;54.33;;;11.23;;
67272;SDS011;54190;49.770;9.250;2023-02-22T02:16:19;24.23;;;9.23;;
67272;SDS011;54190;49.770;9.250;2023-02-22T02:18:47;50.53;;;10.33;;
67272;SDS011;54190;49.770;9.250;2023-02-22T02:40:38;51.23;;;10.50;;
67272;SDS011;54190;49.770;9.250;2023-02-22T02:43:30;42.20;;;10.20;;
67272;SDS011;54190;49.770;9.250;2023-02-22T02:46:08;29.30;;;9.90;;
67272;SDS011;54190;49.770;9.250;2023-02-22T02:48:57;52.43;;;10.00;;
67272;SDS011;54190;49.770;9.250;2023-02-22T02:51:28;18.73;;;9.33;;
67272;SDS011;54190;49.770;9.250;2023-02-22T02:53:58;42.20;;;10.50;;
67272;SDS011;54190;49.770;9.250;2023-02-22T02:56:26;17.00;;;9.00;;
67272;SDS011;54190;49.770;9.250;2023-02-22T02:58:52;128.87;;;13.93;;
67272;SDS011;54190;49.770;9.250;2023-02-22T03:04:29;30.13;;;9.70;;
67272;SDS011;54190;49.770;9.250;2023-02-22T03:07:19;36.23;;;10.20;;
67272;SDS011;54190;49.770;9.250;2023-02-22T03:17:47;242.83;;;18.27;;
67272;SDS011;54190;49.770;9.250;2023-02-22T03:23:25;25.80;;;12.07;;
67272;SDS011;54190;49.770;9.250;2023-02-22T03:26:01;63.73;;;11.97;;
67272;SDS011;54190;49.770;9.250;2023-02-22T03:28:31;45.47;;;10.73;;
67272;SDS011;54190;49.770;9.250;2023-02-22T03:31:00;67.40;;;12.33;;
67272;SDS011;54190;49.770;9.250;2023-02-22T03:33:51;144.87;;;15.67;;
67272;SDS011;54190;49.770;9.250;2023-02-22T03:36:21;30.07;;;11.23;;
67272;SDS011;54190;49.770;9.250;2023-02-22T03:38:53;50.87;;;12.80;;
67272;SDS011;54190;49.770;9.250;2023-02-22T03:41:24;33.07;;;11.57;;
67272;SDS011;54190;49.770;9.250;2023-02-22T03:43:54;28.47;;;11.60;;
67272;SDS011;54190;49.770;9.250;2023-02-22T03:46:25;89.93;;;13.10;;
67272;SDS011;54190;49.770;9.250;2023-02-22T03:51:44;54.97;;;11.07;;
67272;SDS011;54190;49.770;9.250;2023-02-22T03:54:11;32.73;;;12.33;;
67272;SDS011;54190;49.770;9.250;2023-02-22T03:56:44;115.30;;;15.00;;
67272;SDS011;54190;49.770;9.250;2023-02-22T03:59:19;103.07;;;13.87;;
67272;SDS011;54190;49.770;9.250;2023-02-22T04:01:49;156.73;;;16.10;;
67272;SDS011;54190;49.770;9.250;2023-02-22T04:04:15;61.93;;;12.60;;
67272;SDS011;54190;49.770;9.250;2023-02-22T04:06:43;44.23;;;11.80;;
67272;SDS011;54190;49.770;9.250;2023-02-22T04:09:09;17.63;;;10.33;;
67272;SDS011;54190;49.770;9.250;2023-02-22T04:11:35;53.00;;;11.27;;
67272;SDS011;54190;49.770;9.250;2023-02-22T04:14:01;31.43;;;11.63;;
67272;SDS011;54190;49.770;9.250;2023-02-22T04:16:26;36.73;;;13.43;;
67272;SDS011;54190;49.770;9.250;2023-02-22T04:18:53;37.60;;;12.10;;
67272;SDS011;54190;49.770;9.250;2023-02-22T04:21:18;19.37;;;11.87;;
67272;SDS011;54190;49.770;9.250;2023-02-22T04:23:47;40.27;;;13.37;;
67272;SDS011;54190;49.770;9.250;2023-02-22T04:26:12;35.20;;;12.93;;
67272;SDS011;54190;49.770;9.250;2023-02-22T04:28:38;61.20;;;14.33;;
67272;SDS011;54190;49.770;9.250;2023-02-22T04:31:11;85.53;;;15.40;;
67272;SDS011;54190;49.770;9.250;2023-02-22T04:33:36;56.00;;;13.83;;
67272;SDS011;54190;49.770;9.250;2023-02-22T04:36:02;77.60;;;14.80;;
67272;SDS011;54190;49.770;9.250;2023-02-22T04:38:31;68.20;;;14.60;;
67272;SDS011;54190;49.770;9.250;2023-02-22T04:40:58;26.17;;;12.60;;
67272;SDS011;54190;49.770;9.250;2023-02-22T04:43:25;93.00;;;16.50;;
67272;SDS011;54190;49.770;9.250;2023-02-22T04:45:55;24.03;;;12.10;;
67272;SDS011;54190;49.770;9.250;2023-02-22T04:48:21;80.00;;;14.90;;
67272;SDS011;54190;49.770;9.250;2023-02-22T04:50:47;21.60;;;13.03;;
67272;SDS011;54190;49.770;9.250;2023-02-22T04:53:13;333.03;;;22.50;;
67272;SDS011;54190;49.770;9.250;2023-02-22T04:55:39;394.80;;;25.20;;
67272;SDS011;54190;49.770;9.250;2023-02-22T04:58:04;449.87;;;27.50;;
67272;SDS011;54190;49.770;9.250;2023-02-22T05:00:30;191.37;;;18.33;;
67272;SDS011;54190;49.770;9.250;2023-02-22T05:02:59;245.43;;;21.00;;
67272;SDS011;54190;49.770;9.250;2023-02-22T05:05:25;84.53;;;14.97;;
67272;SDS011;54190;49.770;9.250;2023-02-22T05:07:51;152.77;;;17.33;;
67272;SDS011;54190;49.770;9.250;2023-02-22T05:10:17;33.80;;;14.73;;
67272;SDS011;54190;49.770;9.250;2023-02-22T05:12:43;96.10;;;16.00;;
67272;SDS011;54190;49.770;9.250;2023-02-22T05:15:09;190.80;;;19.80;;
67272;SDS011;54190;49.770;9.250;2023-02-22T05:17:39;315.37;;;22.47;;
67272;SDS011;54190;49.770;9.250;2023-02-22T05:20:04;151.07;;;17.57;;
67272;SDS011;54190;49.770;9.250;2023-02-22T05:22:32;213.57;;;18.63;;
67272;SDS011;54190;49.770;9.250;2023-02-22T05:24:58;35.13;;;13.50;;
67272;SDS011;54190;49.770;9.250;2023-02-22T05:27:24;256.40;;;20.73;;
67272;SDS011;54190;49.770;9.250;2023-02-22T05:29:49;396.53;;;25.20;;
67272;SDS011;54190;49.770;9.250;2023-02-22T05:32:15;253.27;;;20.87;;
67272;SDS011;54190;49.770;9.250;2023-02-22T05:34:41;134.80;;;16.83;;
67272;SDS011;54190;49.770;9.250;2023-02-22T05:37:06;369.73;;;24.77;;
67272;SDS011;54190;49.770;9.250;2023-02-22T05:39:32;76.67;;;15.83;;
67272;SDS011;54190;49.770;9.250;2023-02-22T05:41:58;150.93;;;18.30;;
67272;SDS011;54190;49.770;9.250;2023-02-22T05:44:23;29.37;;;14.90;;
67272;SDS011;54190;49.770;9.250;2023-02-22T05:46:49;96.43;;;15.53;;
67272;SDS011;54190;49.770;9.250;2023-02-22T05:49:15;303.20;;;24.00;;
67272;SDS011;54190;49.770;9.250;2023-02-22T05:51:41;81.03;;;14.80;;
67272;SDS011;54190;49.770;9.250;2023-02-22T05:54:06;26.07;;;13.40;;
67272;SDS011;54190;49.770;9.250;2023-02-22T05:56:32;26.60;;;14.80;;
67272;SDS011;54190;49.770;9.250;2023-02-22T05:58:58;68.13;;;14.73;;
67272;SDS011;54190;49.770;9.250;2023-02-22T06:01:24;74.83;;;14.60;;
67272;SDS011;54190;49.770;9.250;2023-02-22T06:03:50;26.70;;;11.87;;
67272;SDS011;54190;49.770;9.250;2023-02-22T06:06:16;27.47;;;14.00;;
67272;SDS011;54190;49.770;9.250;2023-02-22T06:08:44;48.60;;;19.00;;
67272;SDS011;54190;49.770;9.250;2023-02-22T06:11:10;69.43;;;28.27;;
67272;SDS011;54190;49.770;9.250;2023-02-22T06:13:36;30.17;;;14.37;;
67272;SDS011;54190;49.770;9.250;2023-02-22T06:16:02;35.30;;;14.30;;
67272;SDS011;54190;49.770;9.250;2023-02-22T06:18:29;85.20;;;16.23;;
67272;SDS011;54190;49.770;9.250;2023-02-22T06:20:55;42.40;;;14.37;;
67272;SDS011;54190;49.770;9.250;2023-02-22T06:23:22;49.97;;;13.70;;
67272;SDS011;54190;49.770;9.250;2023-02-22T06:25:48;299.23;;;23.50;;
67272;SDS011;54190;49.770;9.250;2023-02-22T06:28:13;26.20;;;14.83;;
67272;SDS011;54190;49.770;9.250;2023-02-22T06:30:39;27.47;;;13.67;;
67272;SDS011;54190;49.770;9.250;2023-02-22T06:33:09;93.50;;;16.63;;
67272;SDS011;54190;49.770;9.250;2023-02-22T06:35:35;45.10;;;14.23;;
67272;SDS011;54190;49.770;9.250;2023-02-22T06:38:01;38.73;;;14.10;;
67272;SDS011;54190;49.770;9.250;2023-02-22T06:40:26;29.90;;;14.13;;
67272;SDS011;54190;49.770;9.250;2023-02-22T06:42:55;75.40;;;15.50;;
67272;SDS011;54190;49.770;9.250;2023-02-22T06:45:22;103.73;;;16.60;;
67272;SDS011;54190;49.770;9.250;2023-02-22T06:47:48;33.63;;;13.80;;
67272;SDS011;54190;49.770;9.250;2023-02-22T06:50:18;37.33;;;13.53;;
67272;SDS011;54190;49.770;9.250;2023-02-22T06:52:49;38.67;;;13.37;;
67272;SDS011;54190;49.770;9.250;2023-02-22T06:55:19;58.93;;;14.93;;
67272;SDS011;54190;49.770;9.250;2023-02-22T06:57:46;26.47;;;12.47;;
67272;SDS011;54190;49.770;9.250;2023-02-22T07:00:13;275.03;;;22.70;;
67272;SDS011;54190;49.770;9.250;2023-02-22T07:02:41;87.23;;;17.53;;
67272;SDS011;54190;49.770;9.250;2023-02-22T07:05:08;252.43;;;21.93;;
67272;SDS011;54190;49.770;9.250;2023-02-22T07:07:36;27.93;;;14.43;;
67272;SDS011;54190;49.770;9.250;2023-02-22T07:10:03;42.20;;;15.67;;
67272;SDS011;54190;49.770;9.250;2023-02-22T07:12:33;23.80;;;14.83;;
67272;SDS011;54190;49.770;9.250;2023-02-22T07:14:59;30.50;;;14.50;;
67272;SDS011;54190;49.770;9.250;2023-02-22T07:17:25;24.03;;;14.83;;
67272;SDS011;54190;49.770;9.250;2023-02-22T07:19:50;30.90;;;14.77;;
67272;SDS011;54190;49.770;9.250;2023-02-22T07:22:16;29.10;;;13.17;;
67272;SDS011;54190;49.770;9.250;2023-02-22T07:24:42;28.63;;;14.00;;
67272;SDS011;54190;49.770;9.250;2023-02-22T07:27:07;33.17;;;13.70;;
67272;SDS011;54190;49.770;9.250;2023-02-22T07:29:33;22.70;;;13.50;;
67272;SDS011;54190;49.770;9.250;2023-02-22T07:32:00;27.73;;;16.27;;
67272;SDS011;54190;49.770;9.250;2023-02-22T07:34:26;22.97;;;14.27;;
67272;SDS011;54190;49.770;9.250;2023-02-22T07:36:52;21.40;;;12.90;;
67272;SDS011;54190;49.770;9.250;2023-02-22T07:39:17;20.30;;;12.77;;
67272;SDS011;54190;49.770;9.250;2023-02-22T07:41:43;26.77;;;12.87;;
67272;SDS011;54190;49.770;9.250;2023-02-22T07:44:28;21.47;;;13.97;;
67272;SDS011;54190;49.770;9.250;2023-02-22T07:46:53;24.90;;;14.13;;
67272;SDS011;54190;49.770;9.250;2023-02-22T07:49:19;21.40;;;13.13;;
67272;SDS011;54190;49.770;9.250;2023-02-22T07:51:44;24.97;;;13.60;;
67272;SDS011;54190;49.770;9.250;2023-02-22T07:54:10;23.70;;;13.83;;
67272;SDS011;54190;49.770;9.250;2023-02-22T07:56:36;22.33;;;14.10;;
67272;SDS011;54190;49.770;9.250;2023-02-22T07:59:01;24.80;;;13.43;;
67272;SDS011;54190;49.770;9.250;2023-02-22T08:01:27;21.50;;;12.13;;
67272;SDS011;54190;49.770;9.250;2023-02-22T08:03:52;20.70;;;13.20;;
67272;SDS011;54190;49.770;9.250;2023-02-22T08:06:18;20.10;;;13.20;;
67272;SDS011;54190;49.770;9.250;2023-02-22T08:08:45;35.47;;;13.97;;
67272;SDS011;54190;49.770;9.250;2023-02-22T08:11:11;25.87;;;14.43;;
67272;SDS011;54190;49.770;9.250;2023-02-22T08:13:37;21.97;;;13.07;;
67272;SDS011;54190;49.770;9.250;2023-02-22T08:16:03;21.93;;;13.57;;
67272;SDS011;54190;49.770;9.250;2023-02-22T08:18:29;20.20;;;12.27;;
67272;SDS011;54190;49.770;9.250;2023-02-22T08:20:55;24.93;;;11.97;;
67272;SDS011;54190;49.770;9.250;2023-02-22T08:23:22;30.43;;;12.70;;
67272;SDS011;54190;49.770;9.250;2023-02-22T08:25:49;20.63;;;12.50;;
67272;SDS011;54190;49.770;9.250;2023-02-22T08:28:16;17.17;;;12.00;;
67272;SDS011;54190;49.770;9.250;2023-02-22T08:30:45;22.33;;;12.73;;
67272;SDS011;54190;49.770;9.250;2023-02-22T08:33:12;22.03;;;13.87;;
67272;SDS011;54190;49.770;9.250;2023-02-22T08:35:41;24.93;;;15.33;;
67272;SDS011;54190;49.770;9.250;2023-02-22T08:38:07;22.17;;;12.57;;
67272;SDS011;54190;49.770;9.250;2023-02-22T08:40:41;23.30;;;12.47;;
67272;SDS011;54190;49.770;9.250;2023-02-22T08:43:06;25.43;;;13.57;;
67272;SDS011;54190;49.770;9.250;2023-02-22T08:45:32;24.10;;;13.17;;
67272;SDS011;54190;49.770;9.250;2023-02-22T08:47:58;21.27;;;12.70;;
67272;SDS011;54190;49.770;9.250;2023-02-22T08:50:25;25.67;;;14.50;;
67272;SDS011;54190;49.770;9.250;2023-02-22T08:52:58;24.37;;;14.30;;
67272;SDS011;54190;49.770;9.250;2023-02-22T08:55:26;22.17;;;13.43;;
67272;SDS011;54190;49.770;9.250;2023-02-22T08:57:58;20.53;;;13.03;;
67272;SDS011;54190;49.770;9.250;2023-02-22T09:00:25;21.30;;;13.20;;
67272;SDS011;54190;49.770;9.250;2023-02-22T09:02:53;21.93;;;12.77;;
67272;SDS011;54190;49.770;9.250;2023-02-22T09:05:19;22.60;;;13.70;;
67272;SDS011;54190;49.770;9.250;2023-02-22T09:07:45;21.33;;;12.60;;
67272;SDS011;54190;49.770;9.250;2023-02-22T09:10:12;22.10;;;12.23;;
67272;SDS011;54190;49.770;9.250;2023-02-22T09:12:39;19.17;;;12.80;;
67272;SDS011;54190;49.770;9.250;2023-02-22T09:15:06;20.07;;;12.80;;
67272;SDS011;54190;49.770;9.250;2023-02-22T09:17:31;20.97;;;14.07;;
67272;SDS011;54190;49.770;9.250;2023-02-22T09:20:01;20.80;;;14.57;;
67272;SDS011;54190;49.770;9.250;2023-02-22T09:22:28;19.70;;;12.73;;
67272;SDS011;54190;49.770;9.250;2023-02-22T09:24:54;18.77;;;12.23;;
67272;SDS011;54190;49.770;9.250;2023-02-22T09:27:20;18.53;;;12.40;;
67272;SDS011;54190;49.770;9.250;2023-02-22T09:29:48;22.57;;;13.93;;
67272;SDS011;54190;49.770;9.250;2023-02-22T09:32:14;19.00;;;13.37;;
67272;SDS011;54190;49.770;9.250;2023-02-22T09:34:43;17.50;;;12.30;;
67272;SDS011;54190;49.770;9.250;2023-02-22T09:37:10;19.87;;;13.37;;
67272;SDS011;54190;49.770;9.250;2023-02-22T09:39:37;16.00;;;11.20;;
67272;SDS011;54190;49.770;9.250;2023-02-22T09:45:02;15.13;;;11.17;;
67272;SDS011;54190;49.770;9.250;2023-02-22T09:47:58;15.73;;;11.77;;
67272;SDS011;54190;49.770;9.250;2023-02-22T09:50:25;16.57;;;11.53;;
67272;SDS011;54190;49.770;9.250;2023-02-22T09:52:55;17.70;;;11.10;;
67272;SDS011;54190;49.770;9.250;2023-02-22T09:55:44;18.00;;;11.97;;
67272;SDS011;54190;49.770;9.250;2023-02-22T09:58:19;12.80;;;9.30;;
67272;SDS011;54190;49.770;9.250;2023-02-22T10:00:49;14.57;;;9.00;;
67272;SDS011;54190;49.770;9.250;2023-02-22T10:03:28;14.40;;;10.77;;
67272;SDS011;54190;49.770;9.250;2023-02-22T10:06:05;13.63;;;9.47;;
67272;SDS011;54190;49.770;9.250;2023-02-22T10:08:41;15.03;;;9.87;;
67272;SDS011;54190;49.770;9.250;2023-02-22T10:13:50;13.90;;;10.27;;
67272;SDS011;54190;49.770;9.250;2023-02-22T10:16:39;15.17;;;10.40;;
67272;SDS011;54190;49.770;9.250;2023-02-22T10:19:16;14.10;;;9.43;;
67272;SDS011;54190;49.770;9.250;2023-02-22T10:30:30;17.23;;;9.93;;
67272;SDS011;54190;49.770;9.250;2023-02-22T10:33:18;13.80;;;9.63;;
67272;SDS011;54190;49.770;9.250;2023-02-22T10:35:47;11.73;;;8.60;;
67272;SDS011;54190;49.770;9.250;2023-02-22T10:38:20;13.90;;;9.00;;
67272;SDS011;54190;49.770;9.250;2023-02-22T10:40:54;13.90;;;9.10;;
67272;SDS011;54190;49.770;9.250;2023-02-22T10:43:24;12.50;;;9.17;;
67272;SDS011;54190;49.770;9.250;2023-02-22T10:45:52;14.70;;;9.77;;
67272;SDS011;54190;49.770;9.250;2023-02-22T10:48:21;17.30;;;9.80;;
67272;SDS011;54190;49.770;9.250;2023-02-22T10:50:49;13.40;;;9.23;;
67272;SDS011;54190;49.770;9.250;2023-02-22T10:53:18;10.33;;;7.87;;
67272;SDS011;54190;49.770;9.250;2023-02-22T10:56:05;11.23;;;8.10;;
67272;SDS011;54190;49.770;9.250;2023-02-22T11:06:42;12.30;;;7.90;;
67272;SDS011;54190;49.770;9.250;2023-02-22T11:09:14;13.97;;;7.40;;
67272;SDS011;54190;49.770;9.250;2023-02-22T11:11:44;8.63;;;6.80;;
67272;SDS011;54190;49.770;9.250;2023-02-22T11:14:11;11.47;;;7.77;;
67272;SDS011;54190;49.770;9.250;2023-02-22T11:16:49;9.53;;;6.90;;
67272;SDS011;54190;49.770;9.250;2023-02-22T11:21:52;10.00;;;7.63;;
67272;SDS011;54190;49.770;9.250;2023-02-22T11:24:22;9.50;;;7.50;;
67272;SDS011;54190;49.770;9.250;2023-02-22T11:26:54;11.20;;;8.50;;
67272;SDS011;54190;49.770;9.250;2023-02-22T11:29:29;10.70;;;7.80;;
67272;SDS011;54190;49.770;9.250;2023-02-22T11:31:57;12.80;;;8.20;;
67272;SDS011;54190;49.770;9.250;2023-02-22T11:34:38;9.80;;;7.83;;
67272;SDS011;54190;49.770;9.250;2023-02-22T11:40:29;12.40;;;8.50;;
67272;SDS011;54190;49.770;9.250;2023-02-22T11:42:49;9.40;;;7.33;;
67272;SDS011;54190;49.770;9.250;2023-02-22T11:45:32;10.87;;;7.70;;
67272;SDS011;54190;49.770;9.250;2023-02-22T11:48:00;9.47;;;6.67;;
67272;SDS011;54190;49.770;9.250;2023-02-22T11:50:28;9.53;;;7.13;;
67272;SDS011;54190;49.770;9.250;2023-02-22T11:56:03;9.80;;;7.57;;
67272;SDS011;54190;49.770;9.250;2023-02-22T12:01:30;10.93;;;7.40;;
67272;SDS011;54190;49.770;9.250;2023-02-22T12:10:02;9.93;;;6.90;;
67272;SDS011;54190;49.770;9.250;2023-02-22T12:18:08;12.30;;;7.20;;
67272;SDS011;54190;49.770;9.250;2023-02-22T12:20:44;12.17;;;8.00;;
67272;SDS011;54190;49.770;9.250;2023-02-22T12:23:19;10.50;;;7.00;;
67272;SDS011;54190;49.770;9.250;2023-02-22T12:28:24;10.50;;;7.33;;
67272;SDS011;54190;49.770;9.250;2023-02-22T12:30:58;9.50;;;7.03;;
67272;SDS011;54190;49.770;9.250;2023-02-22T12:33:45;9.40;;;7.23;;
67272;SDS011;54190;49.770;9.250;2023-02-22T12:36:19;11.13;;;6.83;;
67272;SDS011;54190;49.770;9.250;2023-02-22T12:38:58;8.00;;;6.60;;
67272;SDS011;54190;49.770;9.250;2023-02-22T12:41:42;9.83;;;7.40;;
67272;SDS011;54190;49.770;9.250;2023-02-22T12:44:16;10.27;;;6.80;;
67272;SDS011;54190;49.770;9.250;2023-02-22T12:46:50;9.03;;;6.97;;
67272;SDS011;54190;49.770;9.250;2023-02-22T12:52:49;9.40;;;7.43;;
67272;SDS011;54190;49.770;9.250;2023-02-22T12:55:28;7.60;;;6.40;;
67272;SDS011;54190;49.770;9.250;2023-02-22T12:58:06;9.30;;;6.43;;
67272;SDS011;54190;49.770;9.250;2023-02-22T13:00:43;9.80;;;6.90;;
67272;SDS011;54190;49.770;9.250;2023-02-22T13:06:22;14.43;;;6.83;;
67272;SDS011;54190;49.770;9.250;2023-02-22T13:08:54;9.43;;;6.50;;
67272;SDS011;54190;49.770;9.250;2023-02-22T13:11:37;9.67;;;6.87;;
67272;SDS011;54190;49.770;9.250;2023-02-22T13:22:46;9.13;;;6.43;;
67272;SDS011;54190;49.770;9.250;2023-02-22T13:25:26;8.13;;;6.73;;
67272;SDS011;54190;49.770;9.250;2023-02-22T13:28:01;9.67;;;7.23;;
67272;SDS011;54190;49.770;9.250;2023-02-22T13:30:43;9.80;;;7.33;;
67272;SDS011;54190;49.770;9.250;2023-02-22T13:33:24;37.63;;;22.60;;
67272;SDS011;54190;49.770;9.250;2023-02-22T13:48:16;7.23;;;6.17;;
67272;SDS011;54190;49.770;9.250;2023-02-22T13:53:53;7.87;;;6.33;;
67272;SDS011;54190;49.770;9.250;2023-02-22T13:56:24;6.83;;;5.20;;
67272;SDS011;54190;49.770;9.250;2023-02-22T13:59:00;8.10;;;5.47;;
67272;SDS011;54190;49.770;9.250;2023-02-22T14:01:38;8.80;;;5.93;;
67272;SDS011;54190;49.770;9.250;2023-02-22T14:04:19;7.67;;;5.80;;
67272;SDS011;54190;49.770;9.250;2023-02-22T14:06:51;10.43;;;6.37;;
67272;SDS011;54190;49.770;9.250;2023-02-22T14:17:34;7.03;;;4.63;;
67272;SDS011;54190;49.770;9.250;2023-02-22T14:20:02;6.07;;;5.10;;
67272;SDS011;54190;49.770;9.250;2023-02-22T14:22:30;6.23;;;4.20;;
67272;SDS011;54190;49.770;9.250;2023-02-22T14:24:56;8.27;;;4.80;;
67272;SDS011;54190;49.770;9.250;2023-02-22T14:27:22;8.20;;;5.37;;
67272;SDS011;54190;49.770;9.250;2023-02-22T14:29:49;8.30;;;5.27;;
67272;SDS011;54190;49.770;9.250;2023-02-22T14:32:17;8.73;;;7.37;;
67272;SDS011;54190;49.770;9.250;2023-02-22T14:34:48;9.33;;;5.93;;
67272;SDS011;54190;49.770;9.250;2023-02-22T14:37:23;8.77;;;5.60;;
67272;SDS011;54190;49.770;9.250;2023-02-22T14:40:04;7.43;;;5.80;;
67272;SDS011;54190;49.770;9.250;2023-02-22T14:42:44;9.60;;;6.00;;
67272;SDS011;54190;49.770;9.250;2023-02-22T14:45:20;7.57;;;5.57;;
67272;SDS011;54190;49.770;9.250;2023-02-22T14:48:11;9.77;;;6.07;;
67272;SDS011;54190;49.770;9.250;2023-02-22T15:03:55;7.40;;;6.10;;
67272;SDS011;54190;49.770;9.250;2023-02-22T15:06:27;7.20;;;5.80;;
67272;SDS011;54190;49.770;9.250;2023-02-22T15:09:10;8.90;;;6.97;;
67272;SDS011;54190;49.770;9.250;2023-02-22T15:11:50;9.60;;;6.10;;
67272;SDS011;54190;49.770;9.250;2023-02-22T15:14:37;7.93;;;6.37;;
67272;SDS011;54190;49.770;9.250;2023-02-22T15:17:12;9.47;;;6.90;;
67272;SDS011;54190;49.770;9.250;2023-02-22T15:19:45;9.23;;;6.90;;
67272;SDS011;54190;49.770;9.250;2023-02-22T15:22:33;10.10;;;6.60;;
67272;SDS011;54190;49.770;9.250;2023-02-22T15:25:04;9.00;;;6.40;;
67272;SDS011;54190;49.770;9.250;2023-02-22T15:27:32;11.60;;;7.00;;
67272;SDS011;54190;49.770;9.250;2023-02-22T15:30:06;8.80;;;6.50;;
67272;SDS011;54190;49.770;9.250;2023-02-22T15:32:53;9.10;;;6.93;;
67272;SDS011;54190;49.770;9.250;2023-02-22T15:41:02;11.10;;;6.90;;
67272;SDS011;54190;49.770;9.250;2023-02-22T15:43:32;13.07;;;6.83;;
67272;SDS011;54190;49.770;9.250;2023-02-22T15:45:58;12.43;;;7.30;;
67272;SDS011;54190;49.770;9.250;2023-02-22T15:48:24;8.03;;;7.17;;
67272;SDS011;54190;49.770;9.250;2023-02-22T15:53:47;10.97;;;8.17;;
67272;SDS011;54190;49.770;9.250;2023-02-22T15:56:15;9.93;;;7.97;;
67272;SDS011;54190;49.770;9.250;2023-02-22T15:58:44;11.00;;;7.53;;
67272;SDS011;54190;49.770;9.250;2023-02-22T16:01:15;12.53;;;8.13;;
67272;SDS011;54190;49.770;9.250;2023-02-22T16:03:50;10.23;;;7.17;;
67272;SDS011;54190;49.770;9.250;2023-02-22T16:06:34;13.63;;;8.80;;
67272;SDS011;54190;49.770;9.250;2023-02-22T16:09:06;10.23;;;7.70;;
67272;SDS011;54190;49.770;9.250;2023-02-22T16:11:38;9.50;;;7.30;;
67272;SDS011;54190;49.770;9.250;2023-02-22T16:22:43;6.40;;;5.00;;
67272;SDS011;54190;49.770;9.250;2023-02-22T16:27:49;12.13;;;5.57;;
67272;SDS011;54190;49.770;9.250;2023-02-22T16:32:43;6.90;;;4.10;;
67272;SDS011;54190;49.770;9.250;2023-02-22T16:35:09;5.20;;;3.73;;
67272;SDS011;54190;49.770;9.250;2023-02-22T16:38:03;5.50;;;4.10;;
67272;SDS011;54190;49.770;9.250;2023-02-22T16:40:35;7.90;;;4.03;;
67272;SDS011;54190;49.770;9.250;2023-02-22T16:43:12;6.53;;;3.50;;
67272;SDS011;54190;49.770;9.250;2023-02-22T16:45:41;9.40;;;4.33;;
67272;SDS011;54190;49.770;9.250;2023-02-22T16:48:23;4.57;;;3.30;;
67272;SDS011;54190;49.770;9.250;2023-02-22T16:50:51;8.30;;;3.90;;
67272;SDS011;54190;49.770;9.250;2023-02-22T16:53:19;6.97;;;4.80;;
67272;SDS011;54190;49.770;9.250;2023-02-22T16:55:47;6.80;;;5.10;;
67272;SDS011;54190;49.770;9.250;2023-02-22T16:58:13;7.60;;;4.50;;
67272;SDS011;54190;49.770;9.250;2023-02-22T17:00:40;8.03;;;4.67;;
67272;SDS011;54190;49.770;9.250;2023-02-22T17:03:09;6.80;;;4.80;;
67272;SDS011;54190;49.770;9.250;2023-02-22T17:05:39;6.23;;;4.77;;
67272;SDS011;54190;49.770;9.250;2023-02-22T17:08:05;5.37;;;4.10;;
67272;SDS011;54190;49.770;9.250;2023-02-22T17:10:31;6.60;;;4.50;;
67272;SDS011;54190;49.770;9.250;2023-02-22T17:12:59;8.73;;;4.53;;
67272;SDS011;54190;49.770;9.250;2023-02-22T17:15:30;6.47;;;4.90;;
67272;SDS011;54190;49.770;9.250;2023-02-22T17:17:59;7.80;;;5.40;;
67272;SDS011;54190;49.770;9.250;2023-02-22T17:20:28;6.73;;;5.20;;
67272;SDS011;54190;49.770;9.250;2023-02-22T17:22:58;9.37;;;7.60;;
67272;SDS011;54190;49.770;9.250;2023-02-22T17:25:27;13.00;;;8.93;;
67272;SDS011;54190;49.770;9.250;2023-02-22T17:27:56;11.40;;;9.77;;
67272;SDS011;54190;49.770;9.250;2023-02-22T17:30:21;12.67;;;10.67;;
67272;SDS011;54190;49.770;9.250;2023-02-22T17:32:48;10.80;;;8.60;;